sensor_id;sensor_type;location;lat;lon;timestamp;P1;durP1;ratioP1;P2;durP2;ratioP2
4732;SDS011;2380;53.668;10.008;2022-12-07T00:00:00;31.90;;;15.47;;
4732;SDS011;2380;53.668;10.008;2022-12-07T00:02:33;46.03;;;19.00;;
4732;SDS011;2380;53.668;10.008;2022-12-07T00:05:02;26.27;;;13.30;;
4732;SDS011;2380;53.668;10.008;2022-12-07T00:07:33;24.80;;;12.00;;
4732;SDS011;2380;53.668;10.008;2022-12-07T00:10:03;29.00;;;14.00;;
4732;SDS011;2380;53.668;10.008;2022-12-07T00:12:33;69.23;;;28.10;;
4732;SDS011;2380;53.668;10.008;2022-12-07T00:15:03;82.70;;;31.57;;
4732;SDS011;2380;53.668;10.008;2022-12-07T00:17:36;24.10;;;14.33;;
4732;SDS011;2380;53.668;10.008;2022-12-07T00:20:06;26.73;;;14.80;;
4732;SDS011;2380;53.668;10.008;2022-12-07T00:22:36;27.07;;;14.83;;
4732;SDS011;2380;53.668;10.008;2022-12-07T00:25:06;29.80;;;14.20;;
4732;SDS011;2380;53.668;10.008;2022-12-07T00:27:36;26.87;;;13.40;;
4732;SDS011;2380;53.668;10.008;2022-12-07T00:30:06;31.20;;;15.10;;
4732;SDS011;2380;53.668;10.008;2022-12-07T00:32:39;29.87;;;15.77;;
4732;SDS011;2380;53.668;10.008;2022-12-07T00:35:08;31.67;;;15.33;;
4732;SDS011;2380;53.668;10.008;2022-12-07T00:37:38;26.93;;;11.40;;
4732;SDS011;2380;53.668;10.008;2022-12-07T00:40:08;42.03;;;17.20;;
4732;SDS011;2380;53.668;10.008;2022-12-07T00:42:38;35.07;;;15.80;;
4732;SDS011;2380;53.668;10.008;2022-12-07T00:45:08;34.83;;;16.70;;
4732;SDS011;2380;53.668;10.008;2022-12-07T00:47:42;31.37;;;16.37;;
4732;SDS011;2380;53.668;10.008;2022-12-07T00:50:11;23.70;;;12.13;;
4732;SDS011;2380;53.668;10.008;2022-12-07T00:52:41;24.23;;;10.40;;
4732;SDS011;2380;53.668;10.008;2022-12-07T00:55:11;27.87;;;14.17;;
4732;SDS011;2380;53.668;10.008;2022-12-07T00:57:40;28.10;;;13.20;;
4732;SDS011;2380;53.668;10.008;2022-12-07T01:00:11;22.57;;;11.20;;
4732;SDS011;2380;53.668;10.008;2022-12-07T01:02:44;31.13;;;12.60;;
4732;SDS011;2380;53.668;10.008;2022-12-07T01:05:13;34.93;;;14.27;;
4732;SDS011;2380;53.668;10.008;2022-12-07T01:07:43;29.57;;;14.57;;
4732;SDS011;2380;53.668;10.008;2022-12-07T01:10:13;31.83;;;14.43;;
4732;SDS011;2380;53.668;10.008;2022-12-07T01:12:43;31.20;;;16.87;;
4732;SDS011;2380;53.668;10.008;2022-12-07T01:15:13;27.40;;;12.90;;
4732;SDS011;2380;53.668;10.008;2022-12-07T01:17:45;26.90;;;12.70;;
4732;SDS011;2380;53.668;10.008;2022-12-07T01:20:15;25.40;;;12.63;;
4732;SDS011;2380;53.668;10.008;2022-12-07T01:22:45;32.70;;;13.17;;
4732;SDS011;2380;53.668;10.008;2022-12-07T01:25:14;26.37;;;12.20;;
4732;SDS011;2380;53.668;10.008;2022-12-07T01:27:44;22.80;;;10.80;;
4732;SDS011;2380;53.668;10.008;2022-12-07T01:30:13;23.73;;;10.53;;
4732;SDS011;2380;53.668;10.008;2022-12-07T01:32:46;19.60;;;10.50;;
4732;SDS011;2380;53.668;10.008;2022-12-07T01:35:15;21.57;;;11.47;;
4732;SDS011;2380;53.668;10.008;2022-12-07T01:37:45;26.80;;;11.70;;
4732;SDS011;2380;53.668;10.008;2022-12-07T01:40:15;22.77;;;9.60;;
4732;SDS011;2380;53.668;10.008;2022-12-07T01:42:44;22.27;;;10.90;;
4732;SDS011;2380;53.668;10.008;2022-12-07T01:48:11;21.73;;;10.30;;
4732;SDS011;2380;53.668;10.008;2022-12-07T01:50:43;21.10;;;10.30;;
4732;SDS011;2380;53.668;10.008;2022-12-07T01:53:14;22.23;;;10.93;;
4732;SDS011;2380;53.668;10.008;2022-12-07T01:55:44;21.40;;;11.00;;
4732;SDS011;2380;53.668;10.008;2022-12-07T01:58:15;16.20;;;8.23;;
4732;SDS011;2380;53.668;10.008;2022-12-07T02:00:45;19.50;;;9.50;;
4732;SDS011;2380;53.668;10.008;2022-12-07T02:03:19;23.23;;;10.47;;
4732;SDS011;2380;53.668;10.008;2022-12-07T02:05:52;15.20;;;8.57;;
4732;SDS011;2380;53.668;10.008;2022-12-07T02:08:22;18.67;;;8.90;;
4732;SDS011;2380;53.668;10.008;2022-12-07T02:10:52;20.33;;;8.83;;
4732;SDS011;2380;53.668;10.008;2022-12-07T02:13:22;19.73;;;9.77;;
4732;SDS011;2380;53.668;10.008;2022-12-07T02:15:59;17.57;;;8.93;;
4732;SDS011;2380;53.668;10.008;2022-12-07T02:18:44;17.83;;;8.43;;
4732;SDS011;2380;53.668;10.008;2022-12-07T02:21:20;23.00;;;8.60;;
4732;SDS011;2380;53.668;10.008;2022-12-07T02:24:02;18.40;;;7.70;;
4732;SDS011;2380;53.668;10.008;2022-12-07T02:29:38;16.80;;;8.03;;
4732;SDS011;2380;53.668;10.008;2022-12-07T02:32:10;18.83;;;7.47;;
4732;SDS011;2380;53.668;10.008;2022-12-07T02:34:44;16.00;;;7.50;;
4732;SDS011;2380;53.668;10.008;2022-12-07T02:37:19;14.87;;;7.83;;
4732;SDS011;2380;53.668;10.008;2022-12-07T02:40:04;12.17;;;6.50;;
4732;SDS011;2380;53.668;10.008;2022-12-07T02:42:53;12.97;;;6.13;;
4732;SDS011;2380;53.668;10.008;2022-12-07T02:45:29;13.87;;;6.17;;
4732;SDS011;2380;53.668;10.008;2022-12-07T02:48:02;11.83;;;5.30;;
4732;SDS011;2380;53.668;10.008;2022-12-07T02:50:34;14.17;;;5.20;;
4732;SDS011;2380;53.668;10.008;2022-12-07T02:53:03;9.73;;;4.97;;
4732;SDS011;2380;53.668;10.008;2022-12-07T02:55:34;12.00;;;5.20;;
4732;SDS011;2380;53.668;10.008;2022-12-07T02:58:11;10.60;;;4.90;;
4732;SDS011;2380;53.668;10.008;2022-12-07T03:00:52;12.33;;;5.00;;
4732;SDS011;2380;53.668;10.008;2022-12-07T03:03:25;13.53;;;3.70;;
4732;SDS011;2380;53.668;10.008;2022-12-07T03:05:59;10.30;;;4.77;;
4732;SDS011;2380;53.668;10.008;2022-12-07T03:08:39;7.33;;;3.77;;
4732;SDS011;2380;53.668;10.008;2022-12-07T03:11:14;7.60;;;4.77;;
4732;SDS011;2380;53.668;10.008;2022-12-07T03:13:48;6.07;;;3.40;;
4732;SDS011;2380;53.668;10.008;2022-12-07T03:16:23;6.97;;;3.37;;
4732;SDS011;2380;53.668;10.008;2022-12-07T03:18:58;5.97;;;3.00;;
4732;SDS011;2380;53.668;10.008;2022-12-07T03:21:31;6.00;;;3.47;;
4732;SDS011;2380;53.668;10.008;2022-12-07T03:24:03;11.93;;;2.60;;
4732;SDS011;2380;53.668;10.008;2022-12-07T03:26:35;5.57;;;2.50;;
4732;SDS011;2380;53.668;10.008;2022-12-07T03:29:06;5.50;;;2.67;;
4732;SDS011;2380;53.668;10.008;2022-12-07T03:31:41;8.03;;;2.47;;
4732;SDS011;2380;53.668;10.008;2022-12-07T03:34:14;4.27;;;2.27;;
4732;SDS011;2380;53.668;10.008;2022-12-07T03:36:47;4.60;;;2.10;;
4732;SDS011;2380;53.668;10.008;2022-12-07T03:39:21;3.53;;;2.00;;
4732;SDS011;2380;53.668;10.008;2022-12-07T03:41:52;47.80;;;18.03;;
4732;SDS011;2380;53.668;10.008;2022-12-07T03:44:23;25.43;;;11.13;;
4732;SDS011;2380;53.668;10.008;2022-12-07T03:46:58;7.20;;;3.10;;
4732;SDS011;2380;53.668;10.008;2022-12-07T03:49:31;4.87;;;1.73;;
4732;SDS011;2380;53.668;10.008;2022-12-07T03:52:06;3.63;;;1.70;;
4732;SDS011;2380;53.668;10.008;2022-12-07T03:54:42;5.23;;;2.57;;
4732;SDS011;2380;53.668;10.008;2022-12-07T03:57:14;3.13;;;1.90;;
4732;SDS011;2380;53.668;10.008;2022-12-07T03:59:45;7.40;;;3.77;;
4732;SDS011;2380;53.668;10.008;2022-12-07T04:02:17;4.07;;;2.30;;
4732;SDS011;2380;53.668;10.008;2022-12-07T04:04:47;3.83;;;2.03;;
4732;SDS011;2380;53.668;10.008;2022-12-07T04:07:17;5.40;;;2.40;;
4732;SDS011;2380;53.668;10.008;2022-12-07T04:09:47;7.00;;;2.70;;
4732;SDS011;2380;53.668;10.008;2022-12-07T04:12:16;5.60;;;2.43;;
4732;SDS011;2380;53.668;10.008;2022-12-07T04:14:46;3.67;;;2.13;;
4732;SDS011;2380;53.668;10.008;2022-12-07T04:17:18;4.57;;;2.57;;
4732;SDS011;2380;53.668;10.008;2022-12-07T04:19:47;5.43;;;2.70;;
4732;SDS011;2380;53.668;10.008;2022-12-07T04:22:17;7.25;;;3.13;;
4732;SDS011;2380;53.668;10.008;2022-12-07T04:24:47;4.93;;;2.70;;
4732;SDS011;2380;53.668;10.008;2022-12-07T04:27:16;7.32;;;3.80;;
4732;SDS011;2380;53.668;10.008;2022-12-07T04:29:46;4.63;;;2.40;;
4732;SDS011;2380;53.668;10.008;2022-12-07T04:32:18;4.10;;;2.60;;
4732;SDS011;2380;53.668;10.008;2022-12-07T04:34:48;8.43;;;3.77;;
4732;SDS011;2380;53.668;10.008;2022-12-07T04:37:21;8.43;;;2.80;;
4732;SDS011;2380;53.668;10.008;2022-12-07T04:39:51;7.13;;;2.70;;
4732;SDS011;2380;53.668;10.008;2022-12-07T04:42:20;5.03;;;2.70;;
4732;SDS011;2380;53.668;10.008;2022-12-07T04:44:50;5.67;;;2.90;;
4732;SDS011;2380;53.668;10.008;2022-12-07T04:47:22;4.43;;;2.70;;
4732;SDS011;2380;53.668;10.008;2022-12-07T04:49:52;5.60;;;3.03;;
4732;SDS011;2380;53.668;10.008;2022-12-07T04:52:22;6.30;;;3.23;;
4732;SDS011;2380;53.668;10.008;2022-12-07T04:54:51;6.53;;;2.67;;
4732;SDS011;2380;53.668;10.008;2022-12-07T04:57:21;6.38;;;3.00;;
4732;SDS011;2380;53.668;10.008;2022-12-07T04:59:50;7.05;;;3.20;;
4732;SDS011;2380;53.668;10.008;2022-12-07T05:02:22;10.13;;;3.80;;
4732;SDS011;2380;53.668;10.008;2022-12-07T05:04:52;6.07;;;3.25;;
4732;SDS011;2380;53.668;10.008;2022-12-07T05:07:22;7.57;;;3.50;;
4732;SDS011;2380;53.668;10.008;2022-12-07T05:09:51;5.07;;;2.67;;
4732;SDS011;2380;53.668;10.008;2022-12-07T05:12:21;10.10;;;3.40;;
4732;SDS011;2380;53.668;10.008;2022-12-07T05:14:50;10.60;;;3.95;;
4732;SDS011;2380;53.668;10.008;2022-12-07T05:17:22;7.50;;;3.80;;
4732;SDS011;2380;53.668;10.008;2022-12-07T05:19:52;7.60;;;3.17;;
4732;SDS011;2380;53.668;10.008;2022-12-07T05:22:21;6.97;;;3.47;;
4732;SDS011;2380;53.668;10.008;2022-12-07T05:24:54;7.20;;;3.40;;
4732;SDS011;2380;53.668;10.008;2022-12-07T05:27:23;6.93;;;3.20;;
4732;SDS011;2380;53.668;10.008;2022-12-07T05:29:53;14.30;;;3.70;;
4732;SDS011;2380;53.668;10.008;2022-12-07T05:32:25;9.00;;;4.22;;
4732;SDS011;2380;53.668;10.008;2022-12-07T05:34:55;9.40;;;3.75;;
4732;SDS011;2380;53.668;10.008;2022-12-07T05:37:24;8.98;;;4.25;;
4732;SDS011;2380;53.668;10.008;2022-12-07T05:39:54;7.50;;;4.07;;
4732;SDS011;2380;53.668;10.008;2022-12-07T05:42:24;8.10;;;3.70;;
4732;SDS011;2380;53.668;10.008;2022-12-07T05:44:53;7.40;;;3.97;;
4732;SDS011;2380;53.668;10.008;2022-12-07T05:47:25;8.13;;;4.10;;
4732;SDS011;2380;53.668;10.008;2022-12-07T05:49:55;18.58;;;4.55;;
4732;SDS011;2380;53.668;10.008;2022-12-07T05:52:25;10.00;;;4.05;;
4732;SDS011;2380;53.668;10.008;2022-12-07T05:54:54;7.67;;;4.60;;
4732;SDS011;2380;53.668;10.008;2022-12-07T05:57:24;9.27;;;4.30;;
4732;SDS011;2380;53.668;10.008;2022-12-07T05:59:54;8.55;;;4.47;;
4732;SDS011;2380;53.668;10.008;2022-12-07T06:02:20;8.23;;;3.80;;
4732;SDS011;2380;53.668;10.008;2022-12-07T06:04:53;12.20;;;4.57;;
4732;SDS011;2380;53.668;10.008;2022-12-07T06:07:22;7.20;;;3.85;;
4732;SDS011;2380;53.668;10.008;2022-12-07T06:09:52;6.72;;;3.85;;
4732;SDS011;2380;53.668;10.008;2022-12-07T06:12:21;8.43;;;4.47;;
4732;SDS011;2380;53.668;10.008;2022-12-07T06:15:00;8.25;;;4.07;;
4732;SDS011;2380;53.668;10.008;2022-12-07T06:17:30;7.40;;;4.15;;
4732;SDS011;2380;53.668;10.008;2022-12-07T06:20:02;8.07;;;4.50;;
4732;SDS011;2380;53.668;10.008;2022-12-07T06:22:32;9.80;;;4.10;;
4732;SDS011;2380;53.668;10.008;2022-12-07T06:25:02;11.23;;;4.80;;
4732;SDS011;2380;53.668;10.008;2022-12-07T06:27:34;11.23;;;4.90;;
4732;SDS011;2380;53.668;10.008;2022-12-07T06:30:04;7.78;;;4.40;;
4732;SDS011;2380;53.668;10.008;2022-12-07T06:32:37;10.35;;;4.28;;
4732;SDS011;2380;53.668;10.008;2022-12-07T06:35:10;12.50;;;4.75;;
4732;SDS011;2380;53.668;10.008;2022-12-07T06:37:39;9.25;;;4.55;;
4732;SDS011;2380;53.668;10.008;2022-12-07T06:40:09;6.93;;;4.50;;
4732;SDS011;2380;53.668;10.008;2022-12-07T06:42:39;10.48;;;4.90;;
4732;SDS011;2380;53.668;10.008;2022-12-07T06:45:09;11.73;;;4.28;;
4732;SDS011;2380;53.668;10.008;2022-12-07T06:47:39;10.00;;;3.80;;
4732;SDS011;2380;53.668;10.008;2022-12-07T06:50:15;7.20;;;3.90;;
4732;SDS011;2380;53.668;10.008;2022-12-07T06:52:44;6.20;;;4.20;;
4732;SDS011;2380;53.668;10.008;2022-12-07T06:55:14;8.52;;;4.05;;
4732;SDS011;2380;53.668;10.008;2022-12-07T06:57:44;10.40;;;4.80;;
4732;SDS011;2380;53.668;10.008;2022-12-07T07:00:14;5.65;;;3.60;;
4732;SDS011;2380;53.668;10.008;2022-12-07T07:02:47;8.15;;;3.25;;
4732;SDS011;2380;53.668;10.008;2022-12-07T07:05:20;6.95;;;3.90;;
4732;SDS011;2380;53.668;10.008;2022-12-07T07:07:50;6.43;;;3.80;;
4732;SDS011;2380;53.668;10.008;2022-12-07T07:10:40;9.50;;;3.40;;
4732;SDS011;2380;53.668;10.008;2022-12-07T07:13:09;12.35;;;3.42;;
4732;SDS011;2380;53.668;10.008;2022-12-07T07:15:39;13.52;;;5.90;;
4732;SDS011;2380;53.668;10.008;2022-12-07T07:18:08;9.13;;;4.07;;
4732;SDS011;2380;53.668;10.008;2022-12-07T07:20:41;13.13;;;3.55;;
4732;SDS011;2380;53.668;10.008;2022-12-07T07:23:10;8.48;;;3.47;;
4732;SDS011;2380;53.668;10.008;2022-12-07T07:25:40;22.63;;;9.57;;
4732;SDS011;2380;53.668;10.008;2022-12-07T07:28:10;8.43;;;4.18;;
4732;SDS011;2380;53.668;10.008;2022-12-07T07:30:39;8.45;;;3.20;;
4732;SDS011;2380;53.668;10.008;2022-12-07T07:33:09;4.70;;;2.45;;
4732;SDS011;2380;53.668;10.008;2022-12-07T07:35:42;6.72;;;2.95;;
4732;SDS011;2380;53.668;10.008;2022-12-07T07:38:11;10.02;;;3.28;;
4732;SDS011;2380;53.668;10.008;2022-12-07T07:40:41;7.07;;;3.13;;
4732;SDS011;2380;53.668;10.008;2022-12-07T07:43:10;17.90;;;3.83;;
4732;SDS011;2380;53.668;10.008;2022-12-07T07:45:40;10.77;;;3.15;;
4732;SDS011;2380;53.668;10.008;2022-12-07T07:48:10;6.60;;;2.25;;
4732;SDS011;2380;53.668;10.008;2022-12-07T07:50:42;6.43;;;2.85;;
4732;SDS011;2380;53.668;10.008;2022-12-07T07:53:11;6.75;;;2.47;;
4732;SDS011;2380;53.668;10.008;2022-12-07T07:55:41;7.57;;;2.42;;
4732;SDS011;2380;53.668;10.008;2022-12-07T07:58:10;5.97;;;2.90;;
4732;SDS011;2380;53.668;10.008;2022-12-07T08:00:40;6.50;;;2.75;;
4732;SDS011;2380;53.668;10.008;2022-12-07T08:03:09;5.95;;;3.05;;
4732;SDS011;2380;53.668;10.008;2022-12-07T08:05:42;5.75;;;3.10;;
4732;SDS011;2380;53.668;10.008;2022-12-07T08:08:11;10.73;;;3.60;;
4732;SDS011;2380;53.668;10.008;2022-12-07T08:10:41;6.78;;;2.30;;
4732;SDS011;2380;53.668;10.008;2022-12-07T08:13:11;11.88;;;2.22;;
4732;SDS011;2380;53.668;10.008;2022-12-07T08:15:41;3.92;;;2.30;;
4732;SDS011;2380;53.668;10.008;2022-12-07T08:18:12;8.13;;;2.45;;
4732;SDS011;2380;53.668;10.008;2022-12-07T08:20:47;10.50;;;2.45;;
4732;SDS011;2380;53.668;10.008;2022-12-07T08:23:16;8.07;;;2.45;;
4732;SDS011;2380;53.668;10.008;2022-12-07T08:25:52;5.88;;;2.22;;
4732;SDS011;2380;53.668;10.008;2022-12-07T08:28:22;4.47;;;1.93;;
4732;SDS011;2380;53.668;10.008;2022-12-07T08:30:51;4.43;;;2.05;;
4732;SDS011;2380;53.668;10.008;2022-12-07T08:33:21;9.38;;;1.90;;
4732;SDS011;2380;53.668;10.008;2022-12-07T08:35:53;7.27;;;2.10;;
4732;SDS011;2380;53.668;10.008;2022-12-07T08:38:23;9.10;;;1.70;;
4732;SDS011;2380;53.668;10.008;2022-12-07T08:40:58;10.07;;;2.07;;
4732;SDS011;2380;53.668;10.008;2022-12-07T08:43:28;9.50;;;2.58;;
4732;SDS011;2380;53.668;10.008;2022-12-07T08:46:00;8.77;;;2.17;;
4732;SDS011;2380;53.668;10.008;2022-12-07T08:48:35;6.63;;;2.42;;
4732;SDS011;2380;53.668;10.008;2022-12-07T08:51:09;8.45;;;2.10;;
4732;SDS011;2380;53.668;10.008;2022-12-07T08:53:40;4.07;;;1.90;;
4732;SDS011;2380;53.668;10.008;2022-12-07T08:56:10;7.40;;;2.25;;
4732;SDS011;2380;53.668;10.008;2022-12-07T08:58:39;7.82;;;1.85;;
4732;SDS011;2380;53.668;10.008;2022-12-07T09:01:09;3.67;;;1.50;;
4732;SDS011;2380;53.668;10.008;2022-12-07T09:03:39;4.35;;;1.75;;
4732;SDS011;2380;53.668;10.008;2022-12-07T09:06:11;3.50;;;1.73;;
4732;SDS011;2380;53.668;10.008;2022-12-07T09:08:42;8.57;;;2.15;;
4732;SDS011;2380;53.668;10.008;2022-12-07T09:11:15;5.77;;;1.40;;
4732;SDS011;2380;53.668;10.008;2022-12-07T09:13:52;3.63;;;1.43;;
4732;SDS011;2380;53.668;10.008;2022-12-07T09:16:21;5.10;;;1.30;;
4732;SDS011;2380;53.668;10.008;2022-12-07T09:18:51;5.40;;;1.90;;
4732;SDS011;2380;53.668;10.008;2022-12-07T09:21:23;9.50;;;1.88;;
4732;SDS011;2380;53.668;10.008;2022-12-07T09:23:52;3.38;;;1.50;;
4732;SDS011;2380;53.668;10.008;2022-12-07T09:26:22;5.28;;;2.40;;
4732;SDS011;2380;53.668;10.008;2022-12-07T09:28:52;9.43;;;1.77;;
4732;SDS011;2380;53.668;10.008;2022-12-07T09:31:23;4.53;;;1.47;;
4732;SDS011;2380;53.668;10.008;2022-12-07T09:33:53;12.33;;;1.83;;
4732;SDS011;2380;53.668;10.008;2022-12-07T09:36:27;7.30;;;1.77;;
4732;SDS011;2380;53.668;10.008;2022-12-07T09:38:58;10.43;;;2.23;;
4732;SDS011;2380;53.668;10.008;2022-12-07T09:41:27;44.10;;;18.10;;
4732;SDS011;2380;53.668;10.008;2022-12-07T09:44:02;11.47;;;4.43;;
4732;SDS011;2380;53.668;10.008;2022-12-07T09:46:34;13.10;;;4.47;;
4732;SDS011;2380;53.668;10.008;2022-12-07T09:49:05;5.23;;;2.23;;
4732;SDS011;2380;53.668;10.008;2022-12-07T09:51:41;7.67;;;2.20;;
4732;SDS011;2380;53.668;10.008;2022-12-07T09:54:12;6.40;;;1.80;;
4732;SDS011;2380;53.668;10.008;2022-12-07T09:56:42;4.10;;;1.60;;
4732;SDS011;2380;53.668;10.008;2022-12-07T09:59:13;7.50;;;1.97;;
4732;SDS011;2380;53.668;10.008;2022-12-07T10:01:47;11.70;;;2.23;;
4732;SDS011;2380;53.668;10.008;2022-12-07T10:04:18;8.53;;;1.63;;
4732;SDS011;2380;53.668;10.008;2022-12-07T10:06:51;6.93;;;1.97;;
4732;SDS011;2380;53.668;10.008;2022-12-07T10:09:21;9.87;;;2.13;;
4732;SDS011;2380;53.668;10.008;2022-12-07T10:11:57;8.40;;;2.00;;
4732;SDS011;2380;53.668;10.008;2022-12-07T10:14:32;7.90;;;2.10;;
4732;SDS011;2380;53.668;10.008;2022-12-07T10:23:00;11.10;;;1.43;;
4732;SDS011;2380;53.668;10.008;2022-12-07T10:25:32;9.17;;;2.57;;
4732;SDS011;2380;53.668;10.008;2022-12-07T10:28:09;11.67;;;4.80;;
4732;SDS011;2380;53.668;10.008;2022-12-07T10:30:52;3.63;;;1.47;;
4732;SDS011;2380;53.668;10.008;2022-12-07T10:33:30;8.10;;;1.17;;
4732;SDS011;2380;53.668;10.008;2022-12-07T10:36:15;19.13;;;2.23;;
4732;SDS011;2380;53.668;10.008;2022-12-07T10:38:49;7.50;;;1.63;;
4732;SDS011;2380;53.668;10.008;2022-12-07T10:41:20;5.63;;;1.20;;
4732;SDS011;2380;53.668;10.008;2022-12-07T10:43:50;8.27;;;1.40;;
4732;SDS011;2380;53.668;10.008;2022-12-07T10:46:32;2.37;;;1.10;;
4732;SDS011;2380;53.668;10.008;2022-12-07T10:52:28;19.20;;;6.27;;
4732;SDS011;2380;53.668;10.008;2022-12-07T10:55:08;9.07;;;2.00;;
4732;SDS011;2380;53.668;10.008;2022-12-07T10:57:49;16.13;;;4.30;;
4732;SDS011;2380;53.668;10.008;2022-12-07T11:00:25;7.90;;;3.10;;
4732;SDS011;2380;53.668;10.008;2022-12-07T11:03:09;5.20;;;1.37;;
4732;SDS011;2380;53.668;10.008;2022-12-07T11:05:49;8.10;;;2.80;;
4732;SDS011;2380;53.668;10.008;2022-12-07T11:08:28;16.97;;;5.83;;
4732;SDS011;2380;53.668;10.008;2022-12-07T11:11:16;29.43;;;8.40;;
4732;SDS011;2380;53.668;10.008;2022-12-07T11:13:51;14.33;;;4.43;;
4732;SDS011;2380;53.668;10.008;2022-12-07T11:16:29;52.00;;;18.83;;
4732;SDS011;2380;53.668;10.008;2022-12-07T11:19:12;8.77;;;2.77;;
4732;SDS011;2380;53.668;10.008;2022-12-07T11:21:55;11.43;;;1.97;;
4732;SDS011;2380;53.668;10.008;2022-12-07T11:24:27;6.07;;;1.13;;
4732;SDS011;2380;53.668;10.008;2022-12-07T11:27:07;2.80;;;1.07;;
4732;SDS011;2380;53.668;10.008;2022-12-07T11:29:48;7.83;;;1.67;;
4732;SDS011;2380;53.668;10.008;2022-12-07T11:32:31;9.20;;;1.07;;
4732;SDS011;2380;53.668;10.008;2022-12-07T11:35:09;11.03;;;1.53;;
4732;SDS011;2380;53.668;10.008;2022-12-07T11:37:40;7.10;;;1.30;;
4732;SDS011;2380;53.668;10.008;2022-12-07T11:40:14;8.40;;;1.30;;
4732;SDS011;2380;53.668;10.008;2022-12-07T11:42:52;5.83;;;1.63;;
4732;SDS011;2380;53.668;10.008;2022-12-07T11:45:26;5.03;;;1.10;;
4732;SDS011;2380;53.668;10.008;2022-12-07T11:47:58;8.03;;;1.20;;
4732;SDS011;2380;53.668;10.008;2022-12-07T11:50:31;6.17;;;1.70;;
4732;SDS011;2380;53.668;10.008;2022-12-07T11:53:04;16.50;;;3.10;;
4732;SDS011;2380;53.668;10.008;2022-12-07T11:55:40;7.17;;;1.03;;
4732;SDS011;2380;53.668;10.008;2022-12-07T11:58:18;3.40;;;1.30;;
4732;SDS011;2380;53.668;10.008;2022-12-07T12:01:00;5.27;;;1.00;;
4732;SDS011;2380;53.668;10.008;2022-12-07T12:03:36;3.43;;;1.07;;
4732;SDS011;2380;53.668;10.008;2022-12-07T12:06:11;8.20;;;1.43;;
4732;SDS011;2380;53.668;10.008;2022-12-07T12:08:42;10.50;;;1.10;;
4732;SDS011;2380;53.668;10.008;2022-12-07T12:11:38;6.70;;;2.20;;
4732;SDS011;2380;53.668;10.008;2022-12-07T12:14:29;10.17;;;1.47;;
4732;SDS011;2380;53.668;10.008;2022-12-07T12:17:16;6.03;;;1.67;;
4732;SDS011;2380;53.668;10.008;2022-12-07T12:19:58;6.33;;;1.83;;
4732;SDS011;2380;53.668;10.008;2022-12-07T12:22:32;5.47;;;1.57;;
4732;SDS011;2380;53.668;10.008;2022-12-07T12:25:06;7.00;;;1.20;;
4732;SDS011;2380;53.668;10.008;2022-12-07T12:27:37;9.00;;;2.43;;
4732;SDS011;2380;53.668;10.008;2022-12-07T12:33:12;5.40;;;1.27;;
4732;SDS011;2380;53.668;10.008;2022-12-07T12:35:43;5.83;;;1.17;;
4732;SDS011;2380;53.668;10.008;2022-12-07T12:38:26;5.73;;;1.13;;
4732;SDS011;2380;53.668;10.008;2022-12-07T12:41:00;2.23;;;0.70;;
4732;SDS011;2380;53.668;10.008;2022-12-07T12:43:44;13.20;;;2.83;;
4732;SDS011;2380;53.668;10.008;2022-12-07T12:55:29;8.37;;;1.17;;
4732;SDS011;2380;53.668;10.008;2022-12-07T12:58:34;6.30;;;1.23;;
4732;SDS011;2380;53.668;10.008;2022-12-07T13:07:13;6.60;;;1.33;;
4732;SDS011;2380;53.668;10.008;2022-12-07T13:10:33;56.87;;;17.23;;
4732;SDS011;2380;53.668;10.008;2022-12-07T13:13:08;17.53;;;5.60;;
4732;SDS011;2380;53.668;10.008;2022-12-07T13:18:57;6.03;;;1.33;;
4732;SDS011;2380;53.668;10.008;2022-12-07T13:21:44;3.30;;;0.90;;
4732;SDS011;2380;53.668;10.008;2022-12-07T13:24:14;6.70;;;1.93;;
4732;SDS011;2380;53.668;10.008;2022-12-07T13:26:43;10.00;;;1.80;;
4732;SDS011;2380;53.668;10.008;2022-12-07T13:29:14;8.47;;;1.40;;
4732;SDS011;2380;53.668;10.008;2022-12-07T13:31:46;10.97;;;1.60;;
4732;SDS011;2380;53.668;10.008;2022-12-07T13:34:27;3.93;;;1.10;;
4732;SDS011;2380;53.668;10.008;2022-12-07T13:37:01;14.43;;;4.70;;
4732;SDS011;2380;53.668;10.008;2022-12-07T13:39:33;14.33;;;1.20;;
4732;SDS011;2380;53.668;10.008;2022-12-07T13:42:07;10.63;;;2.00;;
4732;SDS011;2380;53.668;10.008;2022-12-07T13:44:43;11.80;;;1.33;;
4732;SDS011;2380;53.668;10.008;2022-12-07T13:47:14;13.33;;;1.93;;
4732;SDS011;2380;53.668;10.008;2022-12-07T13:49:47;8.20;;;1.10;;
4732;SDS011;2380;53.668;10.008;2022-12-07T13:52:23;11.53;;;1.60;;
4732;SDS011;2380;53.668;10.008;2022-12-07T13:54:55;7.67;;;1.73;;
4732;SDS011;2380;53.668;10.008;2022-12-07T13:57:27;16.33;;;3.40;;
4732;SDS011;2380;53.668;10.008;2022-12-07T14:00:00;7.80;;;1.30;;
4732;SDS011;2380;53.668;10.008;2022-12-07T14:02:31;10.67;;;2.97;;
4732;SDS011;2380;53.668;10.008;2022-12-07T14:05:09;6.90;;;1.30;;
4732;SDS011;2380;53.668;10.008;2022-12-07T14:07:52;6.37;;;1.50;;
4732;SDS011;2380;53.668;10.008;2022-12-07T14:10:23;13.37;;;1.60;;
4732;SDS011;2380;53.668;10.008;2022-12-07T14:12:54;11.63;;;3.60;;
4732;SDS011;2380;53.668;10.008;2022-12-07T14:15:25;7.27;;;1.60;;
4732;SDS011;2380;53.668;10.008;2022-12-07T14:17:57;5.53;;;1.50;;
4732;SDS011;2380;53.668;10.008;2022-12-07T14:20:30;31.63;;;9.73;;
4732;SDS011;2380;53.668;10.008;2022-12-07T14:23:05;6.90;;;1.50;;
4732;SDS011;2380;53.668;10.008;2022-12-07T14:25:49;4.90;;;1.20;;
4732;SDS011;2380;53.668;10.008;2022-12-07T14:28:26;8.53;;;1.90;;
4732;SDS011;2380;53.668;10.008;2022-12-07T14:30:57;4.50;;;1.00;;
4732;SDS011;2380;53.668;10.008;2022-12-07T14:33:27;7.63;;;1.77;;
4732;SDS011;2380;53.668;10.008;2022-12-07T14:35:56;11.40;;;1.60;;
4732;SDS011;2380;53.668;10.008;2022-12-07T14:38:28;3.17;;;1.00;;
4732;SDS011;2380;53.668;10.008;2022-12-07T14:40:58;4.07;;;1.30;;
4732;SDS011;2380;53.668;10.008;2022-12-07T14:43:48;7.63;;;1.83;;
4732;SDS011;2380;53.668;10.008;2022-12-07T14:46:37;4.23;;;1.10;;
4732;SDS011;2380;53.668;10.008;2022-12-07T14:49:07;5.67;;;1.57;;
4732;SDS011;2380;53.668;10.008;2022-12-07T14:51:57;8.17;;;1.70;;
4732;SDS011;2380;53.668;10.008;2022-12-07T14:54:50;21.00;;;5.40;;
4732;SDS011;2380;53.668;10.008;2022-12-07T14:57:19;3.33;;;0.90;;
4732;SDS011;2380;53.668;10.008;2022-12-07T14:59:49;5.97;;;1.33;;
4732;SDS011;2380;53.668;10.008;2022-12-07T15:02:18;8.63;;;1.07;;
4732;SDS011;2380;53.668;10.008;2022-12-07T15:04:48;7.30;;;1.83;;
4732;SDS011;2380;53.668;10.008;2022-12-07T15:07:18;6.03;;;1.13;;
4732;SDS011;2380;53.668;10.008;2022-12-07T15:09:51;10.97;;;1.50;;
4732;SDS011;2380;53.668;10.008;2022-12-07T15:12:21;5.03;;;1.23;;
4732;SDS011;2380;53.668;10.008;2022-12-07T15:14:51;8.20;;;1.17;;
4732;SDS011;2380;53.668;10.008;2022-12-07T15:17:20;6.77;;;1.00;;
4732;SDS011;2380;53.668;10.008;2022-12-07T15:19:57;8.40;;;1.57;;
4732;SDS011;2380;53.668;10.008;2022-12-07T15:22:27;6.80;;;1.23;;
4732;SDS011;2380;53.668;10.008;2022-12-07T15:25:06;5.17;;;1.47;;
4732;SDS011;2380;53.668;10.008;2022-12-07T15:27:37;4.13;;;1.27;;
4732;SDS011;2380;53.668;10.008;2022-12-07T15:30:07;2.90;;;0.80;;
4732;SDS011;2380;53.668;10.008;2022-12-07T15:32:37;5.43;;;1.17;;
4732;SDS011;2380;53.668;10.008;2022-12-07T15:35:07;5.90;;;1.60;;
4732;SDS011;2380;53.668;10.008;2022-12-07T15:37:37;5.30;;;0.93;;
4732;SDS011;2380;53.668;10.008;2022-12-07T15:40:10;8.00;;;1.43;;
4732;SDS011;2380;53.668;10.008;2022-12-07T15:42:41;6.83;;;1.33;;
4732;SDS011;2380;53.668;10.008;2022-12-07T15:45:10;5.87;;;1.70;;
4732;SDS011;2380;53.668;10.008;2022-12-07T15:47:40;12.10;;;3.37;;
4732;SDS011;2380;53.668;10.008;2022-12-07T15:50:34;6.50;;;1.63;;
4732;SDS011;2380;53.668;10.008;2022-12-07T15:53:04;6.70;;;2.17;;
4732;SDS011;2380;53.668;10.008;2022-12-07T15:55:36;5.20;;;1.20;;
4732;SDS011;2380;53.668;10.008;2022-12-07T15:58:07;9.77;;;2.40;;
4732;SDS011;2380;53.668;10.008;2022-12-07T16:00:36;5.90;;;1.07;;
4732;SDS011;2380;53.668;10.008;2022-12-07T16:03:06;12.07;;;1.47;;
4732;SDS011;2380;53.668;10.008;2022-12-07T16:05:36;5.93;;;1.77;;